Time;durP1;ratioP1;P1;durP2;ratioP2;P2;SDS_P1;SDS_P2;PMS_P1;PMS_P2;Temp;Humidity;BMP_temperature;BMP_pressure;BME280_temperature;BME280_humidity;BME280_pressure;Samples;Min_cycle;Max_cycle;Signal;HPM_P1;HPM_P2
2022/08/27 00:00:37;;;;;;;6.00;4.20;;;;;;;25.07;40.59;94698.47;6069531;28;105874;-78
2022/08/27 00:03:40;;;;;;;4.60;3.63;;;;;;;25.09;40.45;94696.25;6071706;28;104457;-79
2022/08/27 00:06:43;;;;;;;10.00;5.27;;;;;;;25.16;40.12;94706.41;6069290;28;103491;-80
2022/08/27 00:09:48;;;;;;;7.73;4.80;;;;;;;25.13;40.53;94706.28;6068902;28;104190;-78
2022/08/27 00:12:54;;;;;;;7.83;4.77;;;;;;;25.09;40.31;94700.81;6073080;28;103681;-79
2022/08/27 00:15:57;;;;;;;6.87;4.43;;;;;;;25.11;40.47;94703.16;6071192;28;104073;-79
2022/08/27 00:19:00;;;;;;;4.60;4.20;;;;;;;25.09;40.18;94704.28;6064458;28;105345;-80
2022/08/27 00:22:06;;;;;;;6.03;3.90;;;;;;;25.09;40.47;94703.50;6073332;28;102890;-79
2022/08/27 00:25:10;;;;;;;4.70;4.20;;;;;;;25.08;40.27;94697.38;6073452;28;103552;-79
2022/08/27 00:28:15;;;;;;;7.90;4.77;;;;;;;25.06;40.42;94690.78;6073465;28;103920;-78
2022/08/27 00:31:18;;;;;;;6.37;4.13;;;;;;;25.01;40.83;94683.72;6064572;28;103774;-80
2022/08/27 00:34:30;;;;;;;7.07;4.50;;;;;;;24.98;40.58;94681.72;6072618;28;104314;-79
2022/08/27 00:37:33;;;;;;;7.07;4.70;;;;;;;24.79;40.69;94687.59;6071876;28;104127;-77
2022/08/27 00:40:36;;;;;;;7.37;4.43;;;;;;;24.57;41.29;94684.53;6068521;28;103508;-77
2022/08/27 00:43:48;;;;;;;6.73;4.73;;;;;;;24.47;41.17;94685.69;6069001;28;104909;-79
2022/08/27 00:46:55;;;;;;;8.30;5.13;;;;;;;24.36;41.66;94688.03;6074235;28;103732;-79
2022/08/27 00:50:02;;;;;;;6.80;4.87;;;;;;;24.35;41.47;94689.09;6073668;28;105788;-78
2022/08/27 00:53:10;;;;;;;8.43;4.90;;;;;;;24.25;42.32;94689.53;6063765;28;105254;-78
2022/08/27 00:56:16;;;;;;;6.50;4.33;;;;;;;24.28;42.30;94688.88;6072266;28;103717;-81
2022/08/27 00:59:24;;;;;;;5.40;4.70;;;;;;;24.24;42.12;94682.63;6072526;28;104022;-80
2022/08/27 01:02:29;;;;;;;7.70;4.63;;;;;;;24.23;42.34;94693.66;6064029;28;103990;-76
2022/08/27 01:05:34;;;;;;;7.57;4.93;;;;;;;24.13;42.73;94697.47;6063096;28;104160;-79
2022/08/27 01:08:42;;;;;;;9.33;5.40;;;;;;;24.10;42.82;94687.44;6072227;28;103805;-78
2022/08/27 01:11:47;;;;;;;7.13;4.60;;;;;;;24.06;42.80;94687.31;6072301;28;105936;-79
2022/08/27 01:14:51;;;;;;;7.53;4.47;;;;;;;24.11;42.68;94684.44;6069131;28;103796;-77
2022/08/27 01:17:57;;;;;;;8.90;5.33;;;;;;;24.29;42.51;94682.41;6066262;28;106967;-78
2022/08/27 01:21:05;;;;;;;6.43;5.30;;;;;;;24.44;42.25;94687.16;6072698;28;103815;-79
2022/08/27 01:24:24;;;;;;;10.17;4.97;;;;;;;24.53;42.30;94683.59;6071445;28;104126;-78
2022/08/27 01:27:30;;;;;;;7.20;4.50;;;;;;;24.58;42.28;94686.88;6062822;28;105124;-78
2022/08/27 01:30:33;;;;;;;7.13;4.50;;;;;;;24.66;42.00;94682.53;6071423;28;103822;-77
2022/08/27 01:33:40;;;;;;;5.40;4.90;;;;;;;24.67;42.14;94692.13;6071462;28;103985;-77
2022/08/27 01:36:43;;;;;;;6.83;4.80;;;;;;;24.68;42.15;94691.03;6071353;28;103780;-78
2022/08/27 01:39:49;;;;;;;7.73;5.37;;;;;;;24.70;42.14;94688.81;6062718;28;104450;-77
2022/08/27 01:42:55;;;;;;;7.37;5.57;;;;;;;24.74;42.14;94689.72;6072665;28;103967;-78
2022/08/27 01:45:59;;;;;;;6.90;5.27;;;;;;;24.78;41.92;94690.63;6071861;28;104261;-79
2022/08/27 01:49:02;;;;;;;7.63;5.67;;;;;;;24.81;42.03;94695.31;6068387;28;104311;-79
2022/08/27 01:52:05;;;;;;;8.03;5.83;;;;;;;24.84;42.10;94689.28;6065278;28;104912;-77
2022/08/27 01:55:16;;;;;;;8.70;6.00;;;;;;;24.85;42.15;94690.06;6070511;28;104322;-79
2022/08/27 01:58:23;;;;;;;7.83;6.00;;;;;;;24.87;42.03;94691.31;6071456;28;107217;-78
2022/08/27 02:01:27;;;;;;;6.23;5.73;;;;;;;24.90;42.18;94692.56;6062941;28;105919;-77
2022/08/27 02:04:32;;;;;;;6.30;5.70;;;;;;;24.90;42.42;94692.56;6069559;28;103993;-78
2022/08/27 02:07:36;;;;;;;6.77;6.10;;;;;;;24.85;42.47;94700.78;6069339;28;103841;-78
2022/08/27 02:10:40;;;;;;;8.20;5.83;;;;;;;24.78;42.86;94691.41;6069383;28;103955;-78
2022/08/27 02:13:44;;;;;;;6.30;5.50;;;;;;;24.80;42.44;94693.75;6061638;28;104004;-77
2022/08/27 02:16:47;;;;;;;9.10;5.47;;;;;;;24.83;42.46;94697.66;6069023;28;105027;-77
2022/08/27 02:19:55;;;;;;;8.00;5.57;;;;;;;24.83;42.34;94695.75;6069624;28;103716;-78
2022/08/27 02:22:59;;;;;;;5.90;5.30;;;;;;;24.88;42.11;94700.91;6069037;28;103788;-78
2022/08/27 02:26:04;;;;;;;8.77;5.40;;;;;;;24.90;42.01;94704.03;6058883;28;103985;-77
2022/08/27 02:29:07;;;;;;;7.77;5.03;;;;;;;24.91;42.33;94704.81;6058231;28;104273;-77
2022/08/27 02:32:10;;;;;;;9.33;5.27;;;;;;;24.90;42.20;94704.03;6068519;28;103925;-77
2022/08/27 02:35:37;;;;;;;7.03;5.10;;;;;;;24.64;41.92;94703.47;6060793;28;106596;-78
2022/08/27 02:38:41;;;;;;;4.97;4.47;;;;;;;24.57;42.27;94705.91;6068631;28;104175;-77
2022/08/27 02:41:47;;;;;;;8.43;4.70;;;;;;;24.57;41.63;94711.28;6069812;28;103804;-77
2022/08/27 02:44:50;;;;;;;7.67;5.07;;;;;;;24.48;42.02;94714.00;6069432;28;104748;-77
2022/08/27 02:47:53;;;;;;;8.07;4.10;;;;;;;24.41;42.19;94717.22;6061315;28;103691;-77
2022/08/27 02:50:57;;;;;;;6.00;4.97;;;;;;;24.41;42.12;94719.13;6069623;28;103903;-77
2022/08/27 02:54:00;;;;;;;5.37;4.87;;;;;;;24.36;42.17;94711.28;6069872;28;104314;-77
2022/08/27 02:57:05;;;;;;;11.83;4.47;;;;;;;24.41;41.94;94719.91;6070377;28;104005;-77
2022/08/27 03:00:11;;;;;;;5.37;4.70;;;;;;;24.38;42.33;94722.47;6061645;28;104059;-78
2022/08/27 03:03:15;;;;;;;8.00;5.20;;;;;;;24.33;41.80;94715.41;6068833;28;104155;-75
2022/08/27 03:06:18;;;;;;;7.20;4.80;;;;;;;24.24;41.87;94722.72;6068917;28;104937;-76
2022/08/27 03:09:21;;;;;;;5.20;4.70;;;;;;;24.25;41.95;94726.19;6065417;28;104112;-78
2022/08/27 03:12:26;;;;;;;7.10;4.80;;;;;;;24.33;41.74;94723.44;6065265;28;104374;-79
2022/08/27 03:15:30;;;;;;;7.00;5.10;;;;;;;24.27;41.54;94724.75;6069509;28;103414;-77
2022/08/27 03:18:34;;;;;;;5.83;4.20;;;;;;;24.33;41.92;94730.66;6068419;28;103749;-77
2022/08/27 03:21:37;;;;;;;5.80;4.40;;;;;;;24.42;41.76;94726.81;6061210;28;103764;-77
2022/08/27 03:24:41;;;;;;;5.83;4.70;;;;;;;24.48;41.47;94727.38;6067998;28;103807;-77
2022/08/27 03:27:46;;;;;;;6.50;4.27;;;;;;;24.54;41.20;94733.34;6068088;28;103747;-77
2022/08/27 03:30:51;;;;;;;6.20;4.57;;;;;;;24.50;41.55;94738.53;6068275;28;104193;-77
2022/08/27 03:33:57;;;;;;;7.77;4.87;;;;;;;24.33;41.46;94739.47;6060197;28;103731;-78
2022/08/27 03:37:00;;;;;;;9.17;4.50;;;;;;;24.41;41.57;94735.97;6068331;28;104691;-78
2022/08/27 03:40:05;;;;;;;6.57;4.70;;;;;;;24.47;41.20;94726.59;6071262;28;104125;-80
2022/08/27 03:43:10;;;;;;;8.80;5.00;;;;;;;24.55;41.13;94734.91;6073443;28;106081;-77
2022/08/27 03:46:13;;;;;;;4.83;4.37;;;;;;;24.59;41.18;94736.59;6067407;28;105564;-78
2022/08/27 03:49:17;;;;;;;7.80;4.70;;;;;;;24.63;41.42;94739.38;6073018;28;103691;-77
2022/08/27 03:52:22;;;;;;;5.63;4.97;;;;;;;24.67;41.13;94740.28;6072989;28;103044;-77
2022/08/27 03:55:25;;;;;;;5.00;4.37;;;;;;;24.70;41.10;94748.47;6066611;28;103987;-77
2022/08/27 03:58:30;;;;;;;11.30;5.40;;;;;;;24.65;41.32;94745.97;6070748;28;103627;-77
2022/08/27 04:01:34;;;;;;;11.13;10.03;;;;;;;24.59;41.09;94741.94;6065584;28;103773;-79
2022/08/27 04:04:39;;;;;;;14.67;12.10;;;;;;;24.25;41.78;94752.94;6071828;28;103844;-77
2022/08/27 04:07:43;;;;;;;10.20;6.47;;;;;;;23.89;42.74;94752.34;6063210;28;103691;-78
2022/08/27 04:10:46;;;;;;;8.17;5.97;;;;;;;24.01;42.87;94758.88;6071819;28;104329;-77
2022/08/27 04:13:51;;;;;;;24.77;21.90;;;;;;;24.07;42.99;94762.97;6071212;28;103509;-78
2022/08/27 04:16:55;;;;;;;18.17;16.37;;;;;;;24.15;42.70;94764.78;6072899;28;104196;-76
2022/08/27 04:19:59;;;;;;;13.80;10.80;;;;;;;24.12;43.04;94766.22;6063363;28;103222;-77
2022/08/27 04:23:22;;;;;;;13.10;10.47;;;;;;;23.85;44.02;94770.13;6070346;28;103940;-77
2022/08/27 04:26:25;;;;;;;13.67;9.77;;;;;;;23.63;44.47;94775.75;6071141;28;104276;-78
2022/08/27 04:29:30;;;;;;;29.50;25.13;;;;;;;23.62;44.62;94774.19;6068077;28;103960;-75
2022/08/27 04:32:34;;;;;;;26.60;23.90;;;;;;;23.82;44.15;94772.66;6067423;28;102985;-76
2022/08/27 04:35:37;;;;;;;37.70;34.10;;;;;;;23.82;44.34;94773.44;6072660;28;104749;-76
2022/08/27 04:38:41;;;;;;;22.27;20.10;;;;;;;23.94;44.13;94771.97;6072087;28;103837;-76
2022/08/27 04:41:44;;;;;;;17.17;15.27;;;;;;;23.99;44.37;94769.88;6074452;28;103942;-76
2022/08/27 04:44:49;;;;;;;22.93;20.83;;;;;;;24.18;43.66;94766.78;6070569;28;102834;-77
2022/08/27 04:47:52;;;;;;;21.90;19.67;;;;;;;24.29;43.70;94764.53;6069563;28;106030;-76
2022/08/27 04:50:55;;;;;;;25.40;21.63;;;;;;;24.41;43.02;94764.59;6071391;28;105633;-77
2022/08/27 04:53:59;;;;;;;22.23;19.93;;;;;;;24.45;43.50;94766.28;6062078;28;105647;-78
2022/08/27 04:57:05;;;;;;;17.50;14.13;;;;;;;24.47;43.36;94772.09;6070460;28;103630;-76
2022/08/27 05:00:11;;;;;;;15.07;11.40;;;;;;;24.30;43.83;94780.25;6069539;28;103825;-76
2022/08/27 05:03:15;;;;;;;18.03;12.77;;;;;;;24.46;43.57;94775.09;6068999;28;102929;-78
2022/08/27 05:06:20;;;;;;;18.50;14.93;;;;;;;24.50;43.50;94784.81;6061232;28;103733;-79
2022/08/27 05:09:23;;;;;;;17.83;14.20;;;;;;;24.59;43.62;94784.75;6070647;28;103956;-77
2022/08/27 05:12:28;;;;;;;14.90;13.43;;;;;;;24.71;44.19;94778.69;6069193;28;103188;-77
2022/08/27 05:15:33;;;;;;;16.20;13.07;;;;;;;24.74;43.89;94786.06;6064477;28;106133;-76
2022/08/27 05:18:38;;;;;;;15.23;12.43;;;;;;;24.77;43.72;94788.06;6066995;28;103811;-77
2022/08/27 05:21:52;;;;;;;18.00;13.30;;;;;;;24.63;44.13;94790.22;6068494;28;105123;-76
2022/08/27 05:24:55;;;;;;;17.37;13.57;;;;;;;24.59;44.10;94797.34;6069633;28;103868;-77
2022/08/27 05:27:59;;;;;;;13.67;10.70;;;;;;;24.46;44.48;94788.47;6058685;28;103079;-75
2022/08/27 05:31:06;;;;;;;15.47;10.67;;;;;;;24.26;45.11;94787.34;6070562;28;102935;-77
2022/08/27 05:34:10;;;;;;;10.60;9.60;;;;;;;24.18;45.08;94788.19;6058840;28;104149;-76
2022/08/27 05:37:22;;;;;;;14.33;10.87;;;;;;;24.41;44.64;94794.81;6067977;28;103938;-75
2022/08/27 05:40:25;;;;;;;21.03;12.07;;;;;;;24.52;44.14;94802.41;6058798;28;103966;-76
2022/08/27 05:43:28;;;;;;;14.07;9.97;;;;;;;24.62;44.35;94799.34;6068567;28;102937;-77
2022/08/27 05:46:33;;;;;;;13.63;10.33;;;;;;;24.69;44.52;94797.72;6068844;28;104450;-77
2022/08/27 05:49:36;;;;;;;12.67;9.50;;;;;;;24.64;44.74;94792.56;6063350;28;104016;-77
2022/08/27 05:52:39;;;;;;;14.87;11.80;;;;;;;24.72;44.09;94793.63;6064121;28;104468;-77
2022/08/27 05:55:46;;;;;;;8.40;7.70;;;;;;;24.65;44.24;94806.72;6068429;28;103239;-77
2022/08/27 06:02:12;;;;;;;13.30;9.53;;;;;;;24.86;44.38;94793.34;6059316;28;103733;-77
2022/08/27 06:05:18;;;;;;;11.40;9.87;;;;;;;24.92;43.65;94795.50;6068870;28;104171;-77
2022/08/27 06:08:22;;;;;;;12.33;9.80;;;;;;;24.97;43.46;94799.84;6068418;28;106130;-76
2022/08/27 06:11:25;;;;;;;11.33;9.83;;;;;;;25.05;43.45;94801.69;6068281;28;104342;-77
2022/08/27 06:14:28;;;;;;;12.13;9.30;;;;;;;25.19;43.89;94798.69;6061356;28;104307;-78
2022/08/27 06:17:33;;;;;;;12.63;9.90;;;;;;;25.26;43.71;94799.72;6069391;28;104013;-77
2022/08/27 06:20:36;;;;;;;11.27;10.23;;;;;;;25.36;44.29;94810.03;6069839;28;103537;-77
2022/08/27 06:23:40;;;;;;;11.10;9.70;;;;;;;25.44;44.23;94803.00;6068929;28;103944;-80
2022/08/27 06:26:44;;;;;;;13.67;10.73;;;;;;;25.36;44.57;94803.88;6060736;28;104892;-77
2022/08/27 06:29:47;;;;;;;14.10;10.80;;;;;;;25.20;44.01;94805.59;6068941;28;103952;-77
2022/08/27 06:32:52;;;;;;;15.10;13.60;;;;;;;25.24;43.84;94809.97;6068932;28;106596;-78
2022/08/27 06:35:59;;;;;;;13.57;12.17;;;;;;;25.48;44.06;94808.47;6059135;28;104108;-78
2022/08/27 06:39:02;;;;;;;23.67;13.60;;;;;;;25.61;43.64;94810.84;6068701;28;104727;-79
2022/08/27 06:42:06;;;;;;;17.87;14.97;;;;;;;25.66;44.39;94805.25;6068735;28;103988;-79
2022/08/27 06:45:10;;;;;;;20.27;14.67;;;;;;;25.69;44.23;94807.28;6069708;28;104254;-79
2022/08/27 06:48:15;;;;;;;16.80;14.50;;;;;;;25.76;44.25;94808.63;6057982;28;103790;-77
2022/08/27 06:51:20;;;;;;;19.53;13.13;;;;;;;25.66;44.25;94813.31;6068387;28;106806;-77
2022/08/27 06:54:23;;;;;;;19.43;14.90;;;;;;;25.62;43.93;94812.41;6068317;28;104051;-78
2022/08/27 06:57:26;;;;;;;15.47;10.90;;;;;;;25.57;43.54;94804.59;6070154;28;104647;-79
2022/08/27 07:00:29;;;;;;;17.10;13.27;;;;;;;25.74;43.83;94805.50;6060548;28;104974;-80
2022/08/27 07:03:34;;;;;;;15.27;11.43;;;;;;;25.71;43.42;94804.28;6067456;28;103900;-76
2022/08/27 07:06:39;;;;;;;13.23;9.50;;;;;;;25.75;43.09;94807.06;6067649;28;103750;-78
2022/08/27 07:09:42;;;;;;;11.43;6.43;;;;;;;25.40;43.14;94802.13;6060365;28;103892;-77
2022/08/27 07:12:45;;;;;;;10.23;5.73;;;;;;;24.76;44.37;94802.56;6051294;28;103824;-76
2022/08/27 07:15:48;;;;;;;7.93;5.83;;;;;;;24.87;45.17;94795.72;6066527;28;103902;-77
2022/08/27 07:18:56;;;;;;;8.70;6.73;;;;;;;25.31;43.99;94799.50;6074095;28;103881;-79
2022/08/27 07:22:03;;;;;;;13.30;7.97;;;;;;;25.47;43.36;94805.03;6080992;28;104106;-78
2022/08/27 07:25:08;;;;;;;11.50;9.30;;;;;;;25.47;43.53;94802.34;6088004;28;102587;-76
2022/08/27 07:28:12;;;;;;;6.83;5.60;;;;;;;25.31;43.28;94806.75;6086598;28;102982;-77
2022/08/27 07:31:19;;;;;;;10.00;6.43;;;;;;;25.40;43.36;94802.13;6087135;28;105999;-77
2022/08/27 07:34:24;;;;;;;8.73;6.60;;;;;;;25.70;43.03;94805.38;6081268;28;103800;-77
2022/08/27 07:37:27;;;;;;;10.43;6.97;;;;;;;25.63;43.40;94811.28;6068868;28;102946;-78
2022/08/27 07:40:37;;;;;;;12.70;6.93;;;;;;;25.29;43.63;94806.31;6067293;28;102870;-77
2022/08/27 07:47:03;;;;;;;12.33;6.50;;;;;;;25.49;42.75;94800.09;6066790;28;103777;-78
2022/08/27 07:50:09;;;;;;;14.30;7.60;;;;;;;25.42;42.93;94809.81;6066183;28;106376;-77
2022/08/27 07:53:13;;;;;;;11.47;6.20;;;;;;;25.34;42.37;94811.44;6067258;28;107545;-77
2022/08/27 07:56:18;;;;;;;14.40;6.47;;;;;;;25.35;42.55;94810.34;6056396;28;104388;-77
2022/08/27 07:59:21;;;;;;;13.00;6.87;;;;;;;25.47;42.52;94804.25;6064037;28;103821;-76
2022/08/27 08:02:26;;;;;;;14.70;6.70;;;;;;;25.57;42.61;94812.63;6065733;28;103997;-77
2022/08/27 08:05:31;;;;;;;11.97;6.40;;;;;;;25.59;42.36;94804.25;6065198;28;103620;-79
2022/08/27 08:08:35;;;;;;;8.53;6.40;;;;;;;25.59;41.83;94805.03;6036981;28;104818;-77
2022/08/27 08:11:41;;;;;;;10.77;7.23;;;;;;;25.53;42.09;94797.53;6058148;28;103712;-76
2022/08/27 08:14:44;;;;;;;16.20;11.47;;;;;;;25.87;41.78;94799.00;6067447;28;103663;-77
2022/08/27 08:17:48;;;;;;;23.77;18.50;;;;;;;26.18;42.03;94803.81;6058929;28;104238;-76
2022/08/27 08:20:53;;;;;;;24.60;18.63;;;;;;;26.36;41.76;94798.97;6066401;28;103721;-76
2022/08/27 08:24:01;;;;;;;19.90;17.17;;;;;;;26.51;41.96;94798.28;6068106;28;103848;-78
2022/08/27 08:27:04;;;;;;;17.53;15.67;;;;;;;26.49;42.14;94793.25;6070106;28;103699;-77
2022/08/27 08:30:11;;;;;;;23.50;14.17;;;;;;;26.30;42.58;94792.28;6060250;28;103882;-76
2022/08/27 08:33:16;;;;;;;18.77;11.57;;;;;;;26.23;42.85;94790.97;6066249;28;105329;-77
2022/08/27 08:36:21;;;;;;;22.13;12.53;;;;;;;26.24;41.99;94789.84;6064997;28;103619;-77
2022/08/27 08:39:24;;;;;;;16.90;10.60;;;;;;;26.15;41.83;94793.78;6074494;28;103947;-77
2022/08/27 08:42:34;;;;;;;15.47;9.03;;;;;;;26.11;41.86;94792.88;6053294;28;104013;-76
2022/08/27 08:45:41;;;;;;;15.27;10.13;;;;;;;26.19;41.96;94787.38;6066584;28;104598;-77
2022/08/27 08:48:47;;;;;;;10.40;8.50;;;;;;;26.31;41.92;94791.16;6066182;28;104108;-76
2022/08/27 08:51:57;;;;;;;11.70;9.20;;;;;;;26.28;41.89;94788.06;6059580;28;103763;-76
2022/08/27 08:55:13;;;;;;;14.83;8.43;;;;;;;26.21;41.80;94787.84;6066452;28;104482;-77
2022/08/27 08:58:26;;;;;;;9.30;7.80;;;;;;;26.15;41.27;94783.81;6067356;28;103871;-78
2022/08/27 09:01:32;;;;;;;11.80;8.10;;;;;;;26.16;41.16;94776.56;6054255;28;103908;-76
2022/08/27 09:04:36;;;;;;;14.57;8.53;;;;;;;26.24;40.92;94784.50;6056632;28;103831;-76
2022/08/27 09:07:46;;;;;;;10.80;7.87;;;;;;;26.34;40.85;94785.13;6069223;28;107190;-77
2022/08/27 09:10:57;;;;;;;13.60;7.63;;;;;;;26.36;40.37;94782.88;6068868;28;103957;-80
2022/08/27 09:14:04;;;;;;;13.73;9.37;;;;;;;26.35;41.05;94778.63;6074029;28;103938;-75
2022/08/27 09:17:11;;;;;;;11.03;6.53;;;;;;;26.35;40.48;94781.31;6067134;28;104007;-77
2022/08/27 09:20:18;;;;;;;12.53;7.40;;;;;;;26.32;40.65;94776.63;6068160;28;103982;-75
2022/08/27 09:23:35;;;;;;;11.27;7.67;;;;;;;26.29;40.51;94770.06;6066073;28;103999;-77
2022/08/27 09:26:42;;;;;;;14.87;6.50;;;;;;;26.20;40.20;94767.47;6060328;28;103590;-76
2022/08/27 09:29:51;;;;;;;9.33;6.53;;;;;;;26.22;39.75;94765.28;6069760;28;103742;-77
2022/08/27 09:32:57;;;;;;;16.10;8.87;;;;;;;26.51;39.36;94761.47;6068597;28;104070;-76
2022/08/27 09:36:03;;;;;;;14.53;8.37;;;;;;;26.59;39.74;94765.16;6067858;28;104134;-76
2022/08/27 09:39:08;;;;;;;11.80;8.07;;;;;;;26.43;39.83;94762.41;6062668;28;103599;-77
2022/08/27 09:42:26;;;;;;;10.53;6.90;;;;;;;26.41;39.49;94771.94;6059332;28;103619;-76
2022/08/27 09:45:30;;;;;;;10.10;6.77;;;;;;;26.52;39.51;94765.72;6069536;28;103752;-78
2022/08/27 09:48:35;;;;;;;11.93;7.40;;;;;;;26.86;38.70;94756.31;6071362;28;104018;-77
2022/08/27 09:51:41;;;;;;;11.43;7.70;;;;;;;26.97;38.45;94769.28;6062099;28;105520;-76
2022/08/27 09:54:54;;;;;;;14.13;8.27;;;;;;;26.28;40.36;94760.44;6069886;28;103932;-77
2022/08/27 09:57:58;;;;;;;13.57;9.30;;;;;;;25.68;41.72;94757.47;6057859;28;103732;-77
2022/08/27 10:01:05;;;;;;;12.47;7.40;;;;;;;25.34;41.30;94752.50;6064345;28;105481;-76
2022/08/27 10:04:11;;;;;;;10.87;8.17;;;;;;;25.24;40.20;94750.28;6065771;28;104018;-76
2022/08/27 10:07:25;;;;;;;14.10;7.40;;;;;;;25.22;40.03;94747.16;6068923;28;106453;-76
2022/08/27 10:10:40;;;;;;;9.53;8.20;;;;;;;25.35;39.71;94746.06;6056087;28;106499;-76
2022/08/27 10:13:56;;;;;;;17.03;8.47;;;;;;;25.33;39.04;94737.56;6037098;28;105829;-77
2022/08/27 10:17:10;;;;;;;12.63;8.00;;;;;;;25.34;38.52;94750.59;6057396;28;103878;-77
2022/08/27 10:20:18;;;;;;;8.83;7.90;;;;;;;25.30;38.10;94746.25;6061687;28;102975;-77
2022/08/27 10:23:42;;;;;;;12.93;7.40;;;;;;;25.25;38.00;94754.53;6067669;28;104745;-77
2022/08/27 10:26:57;;;;;;;13.83;8.77;;;;;;;25.15;37.86;94746.91;6047756;28;104131;-78
2022/08/27 10:30:04;;;;;;;11.70;8.90;;;;;;;24.95;37.86;94741.28;6069346;28;103883;-77
2022/08/27 10:33:15;;;;;;;15.13;13.70;;;;;;;24.86;38.57;94747.84;6068000;28;105991;-76
2022/08/27 10:36:37;;;;;;;22.80;20.80;;;;;;;24.80;38.72;94747.28;6058975;28;103786;-76
2022/08/27 10:39:57;;;;;;;30.37;27.27;;;;;;;24.71;39.36;94744.69;6067989;28;104024;-75
2022/08/27 10:43:14;;;;;;;31.67;28.60;;;;;;;24.69;39.59;94746.09;6068316;28;103896;-76
2022/08/27 10:46:38;;;;;;;30.50;27.77;;;;;;;24.66;39.58;94738.72;6052285;28;106974;-76
2022/08/27 10:50:01;;;;;;;29.50;26.80;;;;;;;24.68;39.36;94744.53;6061626;28;104059;-75
2022/08/27 10:53:10;;;;;;;27.33;24.77;;;;;;;24.62;39.49;94740.50;6066616;28;104447;-76
2022/08/27 10:56:19;;;;;;;25.43;22.77;;;;;;;24.63;39.30;94742.06;6067809;28;103670;-74
2022/08/27 10:59:33;;;;;;;23.63;21.33;;;;;;;24.64;39.37;94741.72;6053430;28;104971;-75
2022/08/27 11:02:42;;;;;;;22.93;20.73;;;;;;;24.60;39.43;94740.03;6050963;28;103546;-76
2022/08/27 11:05:48;;;;;;;22.07;19.93;;;;;;;24.57;39.08;94732.69;6066846;28;103773;-76
2022/08/27 11:08:57;;;;;;;21.43;19.23;;;;;;;24.55;39.27;94730.34;6065332;28;103150;-76
2022/08/27 11:12:05;;;;;;;25.70;18.67;;;;;;;24.66;39.24;94733.38;6066886;28;104365;-78
2022/08/27 11:15:23;;;;;;;22.23;17.10;;;;;;;24.88;39.73;94729.56;6078475;28;104246;-79
2022/08/27 11:18:37;;;;;;;19.33;17.20;;;;;;;25.22;38.86;94721.16;6076680;28;104101;-79
2022/08/27 11:21:46;;;;;;;18.30;16.57;;;;;;;25.48;39.08;94728.88;6069550;28;107032;-79
2022/08/27 11:24:57;;;;;;;19.37;17.07;;;;;;;25.64;38.74;94721.72;6081729;28;103691;-80
2022/08/27 11:28:02;;;;;;;19.10;17.10;;;;;;;25.74;38.92;94720.50;6077499;28;103851;-78
2022/08/27 11:31:16;;;;;;;17.37;15.77;;;;;;;25.81;39.48;94719.94;6077958;28;103985;-80
2022/08/27 11:34:27;;;;;;;19.20;17.07;;;;;;;25.88;39.56;94710.22;6071991;28;103671;-79
2022/08/27 11:37:51;;;;;;;19.27;16.43;;;;;;;25.95;39.80;94712.31;6079843;28;106864;-80
2022/08/27 11:41:04;;;;;;;18.90;17.00;;;;;;;25.95;39.78;94710.41;6079753;28;106295;-79
2022/08/27 11:44:08;;;;;;;19.37;17.60;;;;;;;25.98;40.18;94715.09;6067055;28;103988;-77
2022/08/27 11:47:19;;;;;;;17.20;15.60;;;;;;;26.01;40.29;94707.53;6074105;28;104170;-78
2022/08/27 11:50:24;;;;;;;19.07;17.37;;;;;;;26.03;40.83;94711.44;6073582;28;104072;-80
2022/08/27 11:53:31;;;;;;;17.43;15.70;;;;;;;26.04;41.21;94707.63;6075282;28;103849;-77
2022/08/27 11:56:41;;;;;;;18.03;16.43;;;;;;;26.10;41.43;94700.91;6068008;28;106105;-78
2022/08/27 11:59:45;;;;;;;19.60;16.50;;;;;;;26.09;41.20;94696.69;6080295;28;103750;-78
2022/08/27 12:03:00;;;;;;;18.03;16.37;;;;;;;26.10;41.77;94698.25;6080343;28;104691;-78
2022/08/27 12:06:26;;;;;;;16.83;14.90;;;;;;;26.15;41.57;94691.84;6076843;28;105959;-79
2022/08/27 12:09:30;;;;;;;17.60;16.07;;;;;;;26.18;42.15;94691.16;6076003;28;105803;-79
2022/08/27 12:12:39;;;;;;;18.33;16.47;;;;;;;26.15;42.04;94684.56;6078714;28;106337;-79
2022/08/27 12:15:57;;;;;;;17.80;15.90;;;;;;;26.15;42.17;94684.56;6079409;28;106372;-79
2022/08/27 12:19:26;;;;;;;18.10;16.47;;;;;;;26.20;42.36;94680.88;6047257;28;107092;-82
2022/08/27 12:26:27;;;;;;;18.10;16.30;;;;;;;26.28;42.59;94680.75;6065712;28;103901;-77
2022/08/27 12:29:39;;;;;;;16.10;14.70;;;;;;;26.30;42.72;94682.31;6069552;28;106615;-76
2022/08/27 12:32:49;;;;;;;18.00;15.40;;;;;;;26.31;43.02;94678.50;6069502;28;102897;-77
2022/08/27 12:35:57;;;;;;;17.13;15.43;;;;;;;26.32;42.66;94678.16;6077061;28;103289;-77
2022/08/27 12:39:02;;;;;;;16.07;14.67;;;;;;;26.34;42.99;94672.44;6074599;28;103598;-76
2022/08/27 12:42:13;;;;;;;15.40;14.10;;;;;;;26.34;42.94;94677.81;6064782;28;103966;-77
2022/08/27 12:45:33;;;;;;;17.60;16.03;;;;;;;26.34;43.58;94683.16;6072314;28;105086;-78
2022/08/27 12:48:40;;;;;;;19.60;17.60;;;;;;;26.36;43.66;94679.03;6084871;28;104299;-76
2022/08/27 12:51:46;;;;;;;20.03;18.17;;;;;;;26.39;43.38;94674.91;6069651;28;107618;-76
2022/08/27 12:55:03;;;;;;;19.03;17.20;;;;;;;26.45;43.41;94668.16;6068624;28;104109;-76
2022/08/27 12:58:16;;;;;;;18.67;16.97;;;;;;;26.40;44.18;94669.19;6072565;28;103623;-77
2022/08/27 13:01:42;;;;;;;18.80;16.80;;;;;;;26.43;43.72;94673.88;6077660;28;103865;-76
2022/08/27 13:04:47;;;;;;;18.07;16.37;;;;;;;26.42;44.09;94658.88;6064627;28;106317;-76
2022/08/27 13:07:56;;;;;;;18.70;16.83;;;;;;;26.42;44.40;94663.47;6071394;28;104172;-76
2022/08/27 13:11:08;;;;;;;21.83;19.60;;;;;;;26.42;44.21;94671.53;6070910;28;104181;-79
2022/08/27 13:14:18;;;;;;;24.37;22.20;;;;;;;26.36;44.06;94662.16;6059209;28;105791;-77
2022/08/27 13:17:22;;;;;;;23.40;21.30;;;;;;;26.36;43.65;94660.25;6062184;28;103918;-78
2022/08/27 13:20:26;;;;;;;25.10;22.90;;;;;;;26.36;43.74;94670.19;6071004;28;106588;-75
2022/08/27 13:23:31;;;;;;;28.90;26.40;;;;;;;26.31;40.83;94654.34;6066697;28;104228;-76
2022/08/27 13:26:37;;;;;;;19.80;18.10;;;;;;;26.40;37.90;94653.09;6060406;28;104810;-76
2022/08/27 13:29:42;;;;;;;23.37;21.13;;;;;;;26.45;40.54;94646.69;6073208;28;105852;-76
2022/08/27 13:32:45;;;;;;;15.17;13.57;;;;;;;26.50;37.81;94646.44;6071231;28;107631;-75
2022/08/27 13:35:50;;;;;;;16.17;14.50;;;;;;;26.52;38.13;94649.53;6073141;28;106903;-77
2022/08/27 13:38:56;;;;;;;22.57;15.03;;;;;;;26.47;38.71;94641.75;6064963;28;102916;-76
2022/08/27 13:42:01;;;;;;;18.30;12.97;;;;;;;26.53;37.36;94638.47;6074151;28;106284;-76
2022/08/27 13:45:08;;;;;;;12.80;11.40;;;;;;;26.60;36.53;94645.16;6071652;28;104605;-75
2022/08/27 13:48:13;;;;;;;27.13;9.83;;;;;;;26.61;35.66;94638.66;6068416;28;103434;-76
2022/08/27 13:51:16;;;;;;;10.83;7.47;;;;;;;26.66;34.90;94633.06;6064888;28;104114;-75
2022/08/27 13:54:20;;;;;;;10.50;6.73;;;;;;;26.71;35.02;94638.94;6064319;28;103759;-76
2022/08/27 13:57:25;;;;;;;7.37;6.50;;;;;;;26.67;34.98;94638.09;6067847;28;103688;-77
2022/08/27 14:00:32;;;;;;;10.37;6.93;;;;;;;26.67;35.71;94630.03;6068989;28;106066;-78
2022/08/27 14:03:37;;;;;;;9.97;7.00;;;;;;;26.60;35.33;94640.56;6062211;28;106310;-75
2022/08/27 14:06:46;;;;;;;8.47;7.07;;;;;;;26.54;35.58;94645.38;6066288;28;104094;-75
2022/08/27 14:09:54;;;;;;;13.03;7.37;;;;;;;26.52;36.68;94644.97;6067197;28;106601;-74
2022/08/27 14:13:00;;;;;;;11.63;6.87;;;;;;;26.54;36.50;94640.03;6055880;28;104569;-75
2022/08/27 14:16:14;;;;;;;15.50;7.50;;;;;;;26.54;36.41;94644.59;6065373;28;103447;-74
2022/08/27 14:19:26;;;;;;;12.87;7.00;;;;;;;26.53;36.55;94649.19;6066757;28;105823;-75
2022/08/27 14:22:29;;;;;;;15.10;7.13;;;;;;;26.52;37.33;94654.91;6065070;28;103776;-75
2022/08/27 14:25:34;;;;;;;12.97;7.37;;;;;;;26.51;37.23;94650.66;6058836;28;104201;-74
2022/08/27 14:28:37;;;;;;;6.93;6.20;;;;;;;26.53;36.66;94651.88;6061900;28;103829;-75